Time;durP1;ratioP1;P1;durP2;ratioP2;P2;SDS_P1;SDS_P2;PMS_P1;PMS_P2;Temp;Humidity;BMP_temperature;BMP_pressure;BME280_temperature;BME280_humidity;BME280_pressure;Samples;Min_cycle;Max_cycle;Signal;HPM_P1;HPM_P2
2022/03/12 00:02:41;;;;;;;14.90;10.90;;;2.00;1.00;;;;;;6289249;28;20808;-56
2022/03/12 00:05:48;;;;;;;20.17;12.87;;;2.20;1.00;;;;;;6305951;28;20314;-56
2022/03/12 00:08:53;;;;;;;21.30;11.77;;;2.10;1.00;;;;;;6308982;28;20232;-54
2022/03/12 00:12:00;;;;;;;15.70;11.37;;;2.30;1.00;;;;;;6300065;28;20245;-56
2022/03/12 00:15:09;;;;;;;16.30;11.93;;;1.90;1.00;;;;;;6284770;28;20852;-57
2022/03/12 00:18:12;;;;;;;21.40;12.67;;;2.20;1.00;;;;;;6287192;28;20330;-55
2022/03/12 00:21:15;;;;;;;20.97;13.10;;;2.10;1.00;;;;;;6308418;28;20512;-55
2022/03/12 00:24:19;;;;;;;17.37;12.87;;;1.80;1.00;;;;;;6285773;28;20326;-55
2022/03/12 00:27:22;;;;;;;15.90;12.07;;;2.00;1.00;;;;;;6284139;28;20307;-55
2022/03/12 00:30:26;;;;;;;17.13;11.93;;;2.00;1.00;;;;;;6284289;28;20317;-55
2022/03/12 00:33:29;;;;;;;19.03;11.83;;;1.90;1.00;;;;;;6296677;28;20248;-58
2022/03/12 00:36:32;;;;;;;24.00;12.80;;;2.20;1.00;;;;;;6302159;28;20243;-56
2022/03/12 00:39:37;;;;;;;17.87;12.37;;;2.20;1.00;;;;;;6309633;28;20263;-57
2022/03/12 00:42:39;;;;;;;23.60;12.50;;;2.10;1.00;;;;;;6306396;28;20308;-55
2022/03/12 00:45:43;;;;;;;16.87;13.20;;;2.00;1.00;;;;;;6300311;28;20782;-56
2022/03/12 00:48:46;;;;;;;19.77;13.30;;;1.90;1.00;;;;;;6310214;28;20717;-57
2022/03/12 00:51:49;;;;;;;17.73;12.43;;;1.90;1.00;;;;;;6306971;28;20228;-56
2022/03/12 00:54:53;;;;;;;20.50;13.73;;;2.00;1.00;;;;;;6283754;28;20237;-54
2022/03/12 00:57:56;;;;;;;18.63;13.40;;;1.70;1.00;;;;;;6284615;28;20245;-56
2022/03/12 01:00:59;;;;;;;18.00;13.30;;;1.60;1.00;;;;;;6290559;28;20270;-56
2022/03/12 01:04:02;;;;;;;19.60;13.70;;;1.80;1.00;;;;;;6296116;28;20693;-56
2022/03/12 01:07:05;;;;;;;20.67;13.57;;;1.80;1.00;;;;;;6307535;28;20232;-55
2022/03/12 01:10:10;;;;;;;18.10;13.20;;;1.80;1.00;;;;;;6305569;28;20273;-55
2022/03/12 01:13:13;;;;;;;20.47;13.37;;;1.60;1.00;;;;;;6302923;28;20228;-55
2022/03/12 01:16:15;;;;;;;21.77;14.23;;;1.60;1.00;;;;;;6307106;28;20248;-55
2022/03/12 01:19:18;;;;;;;18.03;13.10;;;1.70;1.00;;;;;;6294992;28;20362;-55
2022/03/12 01:22:21;;;;;;;18.77;12.77;;;1.60;1.00;;;;;;6308135;28;20762;-56
2022/03/12 01:25:26;;;;;;;20.40;12.93;;;1.60;1.00;;;;;;6297262;28;20303;-54
2022/03/12 01:28:29;;;;;;;18.33;12.57;;;1.50;1.00;;;;;;6282803;28;20336;-57
2022/03/12 01:31:31;;;;;;;20.17;13.27;;;1.40;1.00;;;;;;6281741;28;20387;-54
2022/03/12 01:34:34;;;;;;;19.07;13.17;;;1.30;1.00;;;;;;6297880;28;20387;-55
2022/03/12 01:37:37;;;;;;;19.00;12.90;;;1.40;1.00;;;;;;6304530;28;20260;-56
2022/03/12 01:40:41;;;;;;;19.53;14.10;;;1.20;1.00;;;;;;6307461;28;20401;-56
2022/03/12 01:43:44;;;;;;;22.00;12.93;;;1.30;1.00;;;;;;6302707;28;20315;-55
2022/03/12 01:46:48;;;;;;;20.20;13.40;;;1.30;1.00;;;;;;6296659;28;20732;-54
2022/03/12 01:49:54;;;;;;;15.93;11.77;;;1.30;1.00;;;;;;6299770;28;20262;-54
2022/03/12 01:53:00;;;;;;;23.37;13.27;;;1.30;1.00;;;;;;6284490;28;20385;-54
2022/03/12 01:56:05;;;;;;;16.77;12.40;;;1.20;1.00;;;;;;6283194;28;20252;-54
2022/03/12 01:59:08;;;;;;;18.63;12.57;;;1.10;1.00;;;;;;6284034;28;20371;-55
2022/03/12 02:02:13;;;;;;;21.70;11.93;;;1.20;1.00;;;;;;6283691;28;20324;-56
2022/03/12 02:05:18;;;;;;;20.73;12.53;;;1.10;1.00;;;;;;6301843;28;20335;-56
2022/03/12 02:08:21;;;;;;;18.60;12.93;;;1.10;1.00;;;;;;6301790;28;20233;-58
2022/03/12 02:11:27;;;;;;;18.70;12.93;;;1.20;1.00;;;;;;6304955;28;20273;-56
2022/03/12 02:14:30;;;;;;;16.37;12.10;;;1.10;1.00;;;;;;6307498;28;20260;-56
2022/03/12 02:17:33;;;;;;;17.63;12.17;;;0.90;1.00;;;;;;6301296;28;20783;-56
2022/03/12 02:20:38;;;;;;;15.33;11.80;;;1.10;1.00;;;;;;6305941;28;20242;-54
2022/03/12 02:23:49;;;;;;;20.90;12.67;;;0.90;1.00;;;;;;6308377;28;20764;-56
2022/03/12 02:26:54;;;;;;;18.90;14.00;;;0.90;1.00;;;;;;6285205;28;20310;-57
2022/03/12 02:29:59;;;;;;;18.30;13.20;;;0.80;1.00;;;;;;6282903;28;20626;-56
2022/03/12 02:33:02;;;;;;;18.20;11.80;;;0.70;1.00;;;;;;6288249;28;20325;-55
2022/03/12 02:36:13;;;;;;;18.27;13.07;;;0.80;1.00;;;;;;6306256;28;20312;-56
2022/03/12 02:39:20;;;;;;;15.37;12.77;;;0.90;1.00;;;;;;6305996;28;20780;-57
2022/03/12 02:42:23;;;;;;;19.50;12.50;;;0.80;1.00;;;;;;6298419;28;20322;-57
2022/03/12 02:45:29;;;;;;;18.23;13.37;;;0.90;1.00;;;;;;6301757;28;20473;-55
2022/03/12 02:48:32;;;;;;;16.73;13.33;;;0.80;1.00;;;;;;6307436;28;20274;-54
2022/03/12 02:51:35;;;;;;;17.83;13.33;;;0.60;1.00;;;;;;6308313;28;20547;-55
2022/03/12 02:54:40;;;;;;;17.13;12.07;;;0.60;1.00;;;;;;6311783;28;20329;-56
2022/03/12 02:57:45;;;;;;;14.70;12.93;;;0.50;1.00;;;;;;6311356;28;20385;-56
2022/03/12 03:00:48;;;;;;;17.80;12.57;;;0.80;1.00;;;;;;6285424;28;20235;-55
2022/03/12 03:03:52;;;;;;;18.97;12.57;;;0.60;1.00;;;;;;6300313;28;20402;-56
2022/03/12 03:06:55;;;;;;;19.87;13.13;;;0.60;1.00;;;;;;6308962;28;20285;-55
2022/03/12 03:09:59;;;;;;;18.63;12.83;;;0.60;1.00;;;;;;6298004;28;20228;-55
2022/03/12 03:13:21;;;;;;;18.03;12.57;;;0.40;1.00;;;;;;6312074;28;20302;-55
2022/03/12 03:16:26;;;;;;;19.30;13.07;;;0.30;1.00;;;;;;6297834;28;20378;-56
2022/03/12 03:19:29;;;;;;;22.00;12.73;;;0.40;1.00;;;;;;6298475;28;20409;-56
2022/03/12 03:22:32;;;;;;;17.23;12.53;;;0.20;1.00;;;;;;6310775;28;20327;-56
2022/03/12 03:25:36;;;;;;;17.37;12.17;;;0.40;1.00;;;;;;6291713;28;20806;-55
2022/03/12 03:28:39;;;;;;;18.97;12.67;;;0.20;1.00;;;;;;6285933;28;20288;-55
2022/03/12 03:31:43;;;;;;;20.10;13.23;;;0.50;1.00;;;;;;6285305;28;20265;-56
2022/03/12 03:34:46;;;;;;;17.67;11.87;;;0.40;1.00;;;;;;6304724;28;20331;-56
2022/03/12 03:37:49;;;;;;;18.33;13.03;;;0.20;1.00;;;;;;6289123;28;20362;-56
2022/03/12 03:40:53;;;;;;;18.03;12.47;;;0.60;1.00;;;;;;6303612;28;20317;-55
2022/03/12 03:43:56;;;;;;;19.87;13.17;;;0.40;1.00;;;;;;6297816;28;20501;-56
2022/03/12 03:46:59;;;;;;;18.10;12.27;;;0.30;1.00;;;;;;6296309;28;20339;-55
2022/03/12 03:50:03;;;;;;;20.47;13.00;;;0.40;1.00;;;;;;6310291;28;20256;-56
2022/03/12 03:53:06;;;;;;;15.70;12.87;;;0.30;1.00;;;;;;6311392;28;20239;-60
2022/03/12 03:56:10;;;;;;;18.97;13.17;;;0.30;1.00;;;;;;6285481;28;20592;-55
2022/03/12 03:59:13;;;;;;;16.33;13.03;;;0.20;1.00;;;;;;6285998;28;20415;-57
2022/03/12 04:02:16;;;;;;;16.67;12.87;;;0.10;1.00;;;;;;6286892;28;20255;-60
2022/03/12 04:05:20;;;;;;;18.37;13.20;;;0.10;1.00;;;;;;6310725;28;20387;-56
2022/03/12 04:08:22;;;;;;;18.20;12.87;;;0.10;1.00;;;;;;6310214;28;20311;-55
2022/03/12 04:11:27;;;;;;;17.70;12.67;;;-0.10;1.00;;;;;;6305868;28;20236;-56
2022/03/12 04:14:30;;;;;;;16.70;12.70;;;0.10;1.00;;;;;;6285030;28;20241;-55
2022/03/12 04:17:34;;;;;;;18.97;13.47;;;0.00;1.00;;;;;;6283939;28;20821;-55
2022/03/12 04:20:39;;;;;;;27.03;12.93;;;0.20;1.00;;;;;;6303800;28;20361;-56
2022/03/12 04:23:42;;;;;;;18.87;13.23;;;0.00;1.00;;;;;;6303272;28;20725;-56
2022/03/12 04:26:46;;;;;;;19.73;12.97;;;-0.10;1.00;;;;;;6309171;28;21029;-56
2022/03/12 04:29:50;;;;;;;20.73;13.20;;;-0.10;1.00;;;;;;6292775;28;20278;-55
2022/03/12 04:32:53;;;;;;;18.27;13.60;;;-0.10;1.00;;;;;;6280545;28;20289;-56
2022/03/12 04:35:56;;;;;;;17.10;12.83;;;0.20;1.00;;;;;;6306823;28;20246;-55
2022/03/12 04:38:59;;;;;;;20.83;14.23;;;-0.10;1.00;;;;;;6297634;28;20244;-54
2022/03/12 04:42:04;;;;;;;19.13;13.10;;;-0.10;1.00;;;;;;6306596;28;20478;-55
2022/03/12 04:45:08;;;;;;;20.53;13.03;;;0.00;1.00;;;;;;6305781;28;20375;-55
2022/03/12 04:48:15;;;;;;;17.63;12.50;;;-0.10;1.00;;;;;;6303271;28;20230;-55
2022/03/12 04:51:18;;;;;;;24.47;13.40;;;0.00;1.00;;;;;;6304506;28;20304;-57
2022/03/12 04:54:23;;;;;;;19.73;13.93;;;0.00;1.00;;;;;;6307780;28;20851;-56
2022/03/12 04:57:27;;;;;;;20.10;13.53;;;0.00;1.00;;;;;;6307830;28;20717;-56
2022/03/12 05:00:31;;;;;;;17.43;13.00;;;0.00;1.00;;;;;;6304678;28;20778;-55
2022/03/12 05:03:34;;;;;;;20.63;12.97;;;-0.10;1.00;;;;;;6309402;28;20251;-56
2022/03/12 05:06:37;;;;;;;19.27;13.67;;;0.00;1.00;;;;;;6303995;28;20375;-56
2022/03/12 05:09:40;;;;;;;18.00;12.97;;;0.00;1.00;;;;;;6295441;28;20324;-56
2022/03/12 05:12:45;;;;;;;19.03;13.10;;;0.00;1.00;;;;;;6305478;28;20311;-57
2022/03/12 05:15:48;;;;;;;20.33;14.47;;;0.00;1.00;;;;;;6305191;28;20309;-56
2022/03/12 05:18:51;;;;;;;18.60;12.90;;;0.20;1.00;;;;;;6304689;28;20323;-55
2022/03/12 05:21:54;;;;;;;22.10;13.50;;;0.20;1.00;;;;;;6305872;28;20236;-56
2022/03/12 05:24:56;;;;;;;23.43;13.97;;;-0.20;1.00;;;;;;6305722;28;20275;-55
2022/03/12 05:28:01;;;;;;;21.43;13.53;;;-0.10;1.00;;;;;;6306984;28;20291;-57
2022/03/12 05:31:05;;;;;;;22.90;14.47;;;0.00;1.00;;;;;;6303666;28;20259;-54
2022/03/12 05:34:08;;;;;;;21.30;13.57;;;-0.10;1.00;;;;;;6302517;28;20475;-56
2022/03/12 05:37:11;;;;;;;24.63;13.37;;;-0.10;1.00;;;;;;6306162;28;20236;-55
2022/03/12 05:40:19;;;;;;;19.10;13.17;;;-0.10;1.00;;;;;;6300703;28;20321;-57
2022/03/12 05:43:25;;;;;;;18.77;13.87;;;0.00;1.00;;;;;;6306945;28;20242;-56
2022/03/12 05:46:28;;;;;;;23.03;13.57;;;0.20;1.00;;;;;;6295687;28;20240;-57
2022/03/12 05:49:31;;;;;;;17.40;13.00;;;0.00;1.00;;;;;;6296973;28;20721;-57
2022/03/12 05:52:33;;;;;;;24.50;14.43;;;-0.10;1.00;;;;;;6305620;28;20326;-55
2022/03/12 05:55:39;;;;;;;22.33;14.07;;;0.20;1.00;;;;;;6303308;28;20237;-58
2022/03/12 05:58:43;;;;;;;19.07;13.67;;;0.00;1.00;;;;;;6304948;28;20556;-55
2022/03/12 06:01:46;;;;;;;25.80;15.97;;;0.10;1.00;;;;;;6305329;28;20427;-55
2022/03/12 06:04:49;;;;;;;17.93;13.20;;;0.20;1.00;;;;;;6296453;28;20247;-57
2022/03/12 06:07:53;;;;;;;21.73;14.13;;;-0.10;1.00;;;;;;6304917;28;20273;-55
2022/03/12 06:10:57;;;;;;;21.50;14.63;;;0.10;1.00;;;;;;6306295;28;20692;-55
2022/03/12 06:14:10;;;;;;;23.20;14.43;;;0.10;1.00;;;;;;6295723;28;20312;-55
2022/03/12 06:17:14;;;;;;;17.97;13.83;;;0.30;1.00;;;;;;6304495;28;20232;-56
2022/03/12 06:20:20;;;;;;;19.13;13.93;;;0.30;1.00;;;;;;6307333;28;20564;-55
2022/03/12 06:23:23;;;;;;;21.50;14.90;;;0.30;1.00;;;;;;6307142;28;20335;-55
2022/03/12 06:26:27;;;;;;;23.23;14.20;;;0.50;1.00;;;;;;6308743;28;20232;-54
2022/03/12 06:29:31;;;;;;;20.97;14.43;;;0.40;1.00;;;;;;6312206;28;20451;-56
2022/03/12 06:32:34;;;;;;;20.77;14.63;;;0.50;1.00;;;;;;6310686;28;20240;-56
2022/03/12 06:35:37;;;;;;;18.20;12.93;;;0.60;1.00;;;;;;6294926;28;20776;-56
2022/03/12 06:38:39;;;;;;;19.87;13.93;;;1.00;1.00;;;;;;6306165;28;20545;-56
2022/03/12 06:41:44;;;;;;;22.13;14.67;;;1.20;1.00;;;;;;6306125;28;20760;-55
2022/03/12 06:44:52;;;;;;;20.53;14.27;;;1.80;1.00;;;;;;6295995;28;21567;-55
2022/03/12 06:47:56;;;;;;;20.47;14.27;;;1.70;1.00;;;;;;6303912;28;20350;-56
2022/03/12 06:51:00;;;;;;;21.27;13.50;;;1.60;1.00;;;;;;6294913;28;20231;-54
2022/03/12 06:54:03;;;;;;;20.43;13.70;;;1.60;1.00;;;;;;6304000;28;20369;-56
2022/03/12 06:57:06;;;;;;;20.17;13.93;;;1.70;1.00;;;;;;6302081;28;20237;-56
2022/03/12 07:00:16;;;;;;;21.43;13.43;;;2.00;1.00;;;;;;6301862;28;20256;-57
2022/03/12 07:03:19;;;;;;;19.97;13.33;;;1.60;1.00;;;;;;6300475;28;20241;-56
2022/03/12 07:06:22;;;;;;;20.97;14.00;;;1.70;1.00;;;;;;6305395;28;21232;-57
2022/03/12 07:09:25;;;;;;;20.13;13.70;;;1.70;1.00;;;;;;6303798;28;20248;-57
2022/03/12 07:12:27;;;;;;;17.50;14.00;;;2.00;1.00;;;;;;6307492;28;20282;-55
2022/03/12 07:15:31;;;;;;;18.43;13.83;;;2.00;1.00;;;;;;6309647;28;20753;-55
2022/03/12 07:18:34;;;;;;;20.83;14.20;;;2.00;1.00;;;;;;6301110;28;20403;-57
2022/03/12 07:21:37;;;;;;;21.53;14.07;;;1.70;1.00;;;;;;6303298;28;20241;-56
2022/03/12 07:24:40;;;;;;;19.23;13.83;;;2.30;1.00;;;;;;6306576;28;20410;-56
2022/03/12 07:27:44;;;;;;;20.37;13.77;;;3.20;1.00;;;;;;6303972;28;20232;-56
2022/03/12 07:30:48;;;;;;;19.67;12.80;;;3.00;1.00;;;;;;6304272;28;20310;-55
2022/03/12 07:33:51;;;;;;;18.87;13.67;;;3.10;1.00;;;;;;6305348;28;20724;-57
2022/03/12 07:36:54;;;;;;;20.03;13.93;;;2.80;1.00;;;;;;6293512;28;20565;-57
2022/03/12 07:39:57;;;;;;;15.23;12.80;;;2.80;1.00;;;;;;6297526;28;20328;-55
2022/03/12 07:43:00;;;;;;;19.23;13.37;;;2.70;1.00;;;;;;6295357;28;20261;-55
2022/03/12 07:46:04;;;;;;;21.67;13.37;;;2.80;1.00;;;;;;6286762;28;20324;-55
2022/03/12 07:49:07;;;;;;;16.43;12.30;;;3.00;1.00;;;;;;6287851;28;20417;-56
2022/03/12 07:52:10;;;;;;;19.57;13.20;;;2.90;1.00;;;;;;6295177;28;20230;-56
2022/03/12 07:55:15;;;;;;;19.60;12.50;;;3.00;1.00;;;;;;6304971;28;20281;-56
2022/03/12 07:58:18;;;;;;;19.93;12.57;;;3.30;1.00;;;;;;6302513;28;20315;-56
2022/03/12 08:01:22;;;;;;;21.73;13.80;;;3.30;1.00;;;;;;6290801;28;20315;-56
2022/03/12 08:04:26;;;;;;;17.60;11.50;;;3.40;1.00;;;;;;6301712;28;20608;-56
2022/03/12 08:07:30;;;;;;;16.20;11.97;;;3.40;1.00;;;;;;6301976;28;20228;-55
2022/03/12 08:11:24;;;;;;;13.63;11.13;;;3.50;1.00;;;;;;6300483;28;20308;-56
2022/03/12 08:14:02;;;;;;;15.03;11.40;;;3.60;1.00;;;;;;6289157;28;20314;-55
2022/03/12 08:17:06;;;;;;;15.30;11.13;;;3.60;1.00;;;;;;6291004;28;20317;-55
2022/03/12 08:20:10;;;;;;;15.57;11.77;;;3.90;1.00;;;;;;6302381;28;20627;-57
2022/03/12 08:23:13;;;;;;;16.63;11.07;;;3.80;1.00;;;;;;6303415;28;20819;-55
2022/03/12 08:26:18;;;;;;;13.97;10.53;;;4.10;1.00;;;;;;6309585;28;20419;-55
2022/03/12 08:29:21;;;;;;;18.60;11.10;;;4.20;1.00;;;;;;6298890;28;20263;-55
2022/03/12 08:32:25;;;;;;;14.23;11.20;;;4.50;1.00;;;;;;6297278;28;20236;-56
2022/03/12 08:35:28;;;;;;;13.50;11.33;;;4.80;1.00;;;;;;6301634;28;20747;-55
2022/03/12 08:38:32;;;;;;;13.30;10.67;;;4.80;1.00;;;;;;6299761;28;20796;-57
2022/03/12 08:41:35;;;;;;;12.57;10.63;;;4.60;1.00;;;;;;6300413;28;20713;-62
2022/03/12 08:44:39;;;;;;;17.00;11.10;;;4.70;1.00;;;;;;6301828;28;20728;-57
2022/03/12 08:47:44;;;;;;;15.40;10.30;;;4.80;1.00;;;;;;6285330;28;20375;-55
2022/03/12 08:50:47;;;;;;;14.70;11.20;;;5.10;1.00;;;;;;6301222;28;20510;-55
2022/03/12 08:53:50;;;;;;;15.03;11.20;;;5.20;1.00;;;;;;6303729;28;20420;-57
2022/03/12 08:56:53;;;;;;;12.50;10.27;;;5.50;1.00;;;;;;6307659;28;20237;-57
2022/03/12 08:59:56;;;;;;;15.33;10.37;;;5.70;1.00;;;;;;6302195;28;20601;-56
2022/03/12 09:03:00;;;;;;;14.87;10.63;;;5.70;1.00;;;;;;6304482;28;20239;-56
2022/03/12 09:06:04;;;;;;;14.00;10.80;;;5.90;1.00;;;;;;6306307;28;20774;-56
2022/03/12 09:09:07;;;;;;;13.63;10.43;;;5.80;1.00;;;;;;6302185;28;20669;-57
2022/03/12 09:12:10;;;;;;;10.87;9.20;;;6.00;1.00;;;;;;6300772;28;20256;-56
2022/03/12 09:15:14;;;;;;;13.60;10.43;;;6.10;1.00;;;;;;6305042;28;20258;-56
2022/03/12 09:18:20;;;;;;;12.40;10.60;;;6.30;1.00;;;;;;6299920;28;20469;-55
2022/03/12 09:21:23;;;;;;;15.37;9.70;;;6.40;1.00;;;;;;6290724;28;20254;-56
2022/03/12 09:24:27;;;;;;;13.17;9.43;;;6.50;1.00;;;;;;6299576;28;20250;-56
2022/03/12 09:27:30;;;;;;;11.80;10.20;;;6.60;1.00;;;;;;6299850;28;20373;-56
2022/03/12 09:30:32;;;;;;;10.97;9.87;;;6.80;1.00;;;;;;6297560;28;20783;-55
2022/03/12 09:33:38;;;;;;;10.53;8.73;;;6.90;1.00;;;;;;6299355;28;20294;-55
2022/03/12 09:36:42;;;;;;;12.50;9.10;;;6.90;1.00;;;;;;6296347;28;20237;-55
2022/03/12 09:39:45;;;;;;;12.50;9.17;;;6.90;1.00;;;;;;6298895;28;20459;-55
2022/03/12 09:42:49;;;;;;;12.93;9.03;;;7.00;1.00;;;;;;6297786;28;20694;-55
2022/03/12 09:45:51;;;;;;;9.47;8.50;;;7.10;1.00;;;;;;6306494;28;20236;-55
2022/03/12 09:48:56;;;;;;;9.27;8.27;;;7.10;1.00;;;;;;6299217;28;20354;-56
2022/03/12 09:51:59;;;;;;;9.53;8.57;;;7.40;1.00;;;;;;6303194;28;20224;-56
2022/03/12 09:55:03;;;;;;;16.00;8.90;;;7.40;1.00;;;;;;6294571;28;20240;-56
2022/03/12 09:58:06;;;;;;;8.93;8.13;;;7.60;1.00;;;;;;6297469;28;20305;-56
2022/03/12 10:01:10;;;;;;;13.10;8.87;;;7.90;1.00;;;;;;6294933;28;20229;-56
2022/03/12 10:04:15;;;;;;;8.90;8.00;;;7.80;1.00;;;;;;6292370;28;20275;-57
2022/03/12 10:07:18;;;;;;;17.20;8.53;;;7.90;1.00;;;;;;6290296;28;20255;-55
2022/03/12 10:10:22;;;;;;;8.90;8.10;;;8.10;1.00;;;;;;6292113;28;20413;-56
2022/03/12 10:13:25;;;;;;;10.17;9.07;;;8.10;1.00;;;;;;6297267;28;20375;-57
2022/03/12 10:16:29;;;;;;;11.10;8.63;;;8.00;1.00;;;;;;6295940;28;20301;-55
2022/03/12 10:19:37;;;;;;;9.53;8.63;;;8.20;1.00;;;;;;6293907;28;20404;-56
2022/03/12 10:22:40;;;;;;;11.03;9.03;;;8.20;1.00;;;;;;6298907;28;20228;-55
2022/03/12 10:25:43;;;;;;;10.10;8.13;;;8.30;1.00;;;;;;6304955;28;20286;-55
2022/03/12 10:28:46;;;;;;;8.80;8.00;;;8.40;1.00;;;;;;6304649;28;20281;-55
2022/03/12 10:31:49;;;;;;;9.27;8.43;;;8.30;1.00;;;;;;6303437;28;20506;-59
2022/03/12 10:34:56;;;;;;;9.67;8.10;;;8.40;1.00;;;;;;6299066;28;20390;-56
2022/03/12 10:38:02;;;;;;;8.90;8.10;;;8.70;1.00;;;;;;6301423;28;20615;-55
2022/03/12 10:41:06;;;;;;;11.53;8.60;;;8.80;1.00;;;;;;6299605;28;20229;-56
2022/03/12 10:44:09;;;;;;;8.73;7.87;;;9.00;1.00;;;;;;6302520;28;20393;-56
2022/03/12 10:47:22;;;;;;;10.07;8.93;;;9.30;1.00;;;;;;6305953;28;20638;-55
2022/03/12 10:50:30;;;;;;;9.43;8.53;;;9.10;1.00;;;;;;6304527;28;20232;-55
2022/03/12 10:53:36;;;;;;;11.17;8.37;;;9.20;1.00;;;;;;6305501;28;20252;-55
2022/03/12 10:56:43;;;;;;;9.50;8.50;;;9.40;1.00;;;;;;6301191;28;20430;-56
2022/03/12 10:59:46;;;;;;;8.70;7.77;;;9.60;1.00;;;;;;6307701;28;20759;-56
2022/03/12 11:02:53;;;;;;;10.37;8.07;;;9.80;1.00;;;;;;6303195;28;20232;-55
2022/03/12 11:05:59;;;;;;;11.50;8.17;;;10.00;1.00;;;;;;6304883;28;20705;-56
2022/03/12 11:09:02;;;;;;;10.57;7.30;;;9.80;1.00;;;;;;6306602;28;20240;-56
2022/03/12 11:12:29;;;;;;;9.13;7.60;;;9.80;1.00;;;;;;6304567;28;20247;-56
2022/03/12 11:15:33;;;;;;;8.50;7.73;;;9.90;1.00;;;;;;6308646;28;20557;-55
2022/03/12 11:18:36;;;;;;;8.57;7.77;;;9.80;1.00;;;;;;6308297;28;20240;-56
2022/03/12 11:21:43;;;;;;;8.37;7.67;;;9.90;1.00;;;;;;6306367;28;20735;-55
2022/03/12 11:24:50;;;;;;;8.80;7.43;;;10.00;1.00;;;;;;6309171;28;20728;-55
2022/03/12 11:28:00;;;;;;;8.17;7.37;;;10.10;1.00;;;;;;6303140;28;20290;-56
2022/03/12 11:31:04;;;;;;;7.70;7.00;;;10.20;1.00;;;;;;6302912;28;20263;-57
2022/03/12 11:34:20;;;;;;;7.67;7.07;;;10.30;1.00;;;;;;6304711;28;20395;-55
2022/03/12 11:37:25;;;;;;;8.00;7.23;;;10.50;1.00;;;;;;6300278;28;20229;-55
2022/03/12 11:40:27;;;;;;;8.13;7.30;;;10.50;1.00;;;;;;6301453;28;20255;-57
2022/03/12 11:43:32;;;;;;;7.40;6.80;;;10.60;1.00;;;;;;6309903;28;20233;-56
2022/03/12 11:46:37;;;;;;;7.87;7.07;;;10.80;1.00;;;;;;6306825;28;20270;-56
2022/03/12 11:49:40;;;;;;;8.07;7.30;;;10.70;1.00;;;;;;6307274;28;20332;-57
2022/03/12 11:52:45;;;;;;;8.00;7.27;;;10.70;1.00;;;;;;6296311;28;20541;-57
2022/03/12 11:55:51;;;;;;;7.90;7.20;;;10.80;1.00;;;;;;6308135;28;20492;-57
2022/03/12 11:58:54;;;;;;;7.77;6.33;;;10.90;1.00;;;;;;6308950;28;20641;-56
2022/03/12 12:02:16;;;;;;;7.90;7.30;;;11.00;1.00;;;;;;6292935;28;20313;-55
2022/03/12 12:05:20;;;;;;;8.37;6.73;;;10.80;1.00;;;;;;6300677;28;20871;-58
2022/03/12 12:08:24;;;;;;;7.10;6.50;;;11.00;1.00;;;;;;6303748;28;20349;-56
2022/03/12 12:11:27;;;;;;;8.03;7.00;;;11.20;1.00;;;;;;6305336;28;20323;-56
2022/03/12 12:14:29;;;;;;;7.93;6.80;;;11.40;1.00;;;;;;6305681;28;20291;-56
2022/03/12 12:17:33;;;;;;;9.07;7.10;;;11.60;1.00;;;;;;6302010;28;20328;-56
2022/03/12 12:20:36;;;;;;;7.23;6.70;;;11.60;1.00;;;;;;6305296;28;20644;-57
2022/03/12 12:23:40;;;;;;;7.33;6.63;;;11.80;1.00;;;;;;6296275;28;20549;-57
2022/03/12 12:26:58;;;;;;;8.00;7.20;;;11.80;1.00;;;;;;6305087;28;21379;-56
2022/03/12 12:30:05;;;;;;;7.00;6.37;;;11.80;1.00;;;;;;6302556;28;20264;-55
2022/03/12 12:33:20;;;;;;;8.30;7.50;;;12.00;1.00;;;;;;6304854;28;20887;-55
2022/03/12 12:36:23;;;;;;;7.30;6.60;;;12.20;1.00;;;;;;6301339;28;20228;-55
2022/03/12 12:39:27;;;;;;;6.80;6.30;;;12.20;1.00;;;;;;6308797;28;20569;-56
2022/03/12 12:42:39;;;;;;;7.83;6.80;;;12.10;1.00;;;;;;6308101;28;20228;-56
2022/03/12 12:46:09;;;;;;;7.40;6.90;;;12.00;1.00;;;;;;6303148;28;20244;-56
2022/03/12 12:49:16;;;;;;;7.50;6.80;;;12.10;1.00;;;;;;6286442;28;20226;-55
2022/03/12 12:52:19;;;;;;;7.17;6.43;;;12.10;1.00;;;;;;6269268;28;20234;-55
2022/03/12 12:55:26;;;;;;;12.40;6.67;;;12.00;1.00;;;;;;6279156;28;20298;-56
2022/03/12 12:58:47;;;;;;;6.57;6.17;;;12.00;1.00;;;;;;6276623;28;20390;-56
2022/03/12 13:01:52;;;;;;;7.27;6.73;;;12.10;1.00;;;;;;6283927;28;20363;-57
2022/03/12 13:05:06;;;;;;;7.40;6.70;;;12.10;1.00;;;;;;6279266;28;20802;-56
2022/03/12 13:08:09;;;;;;;7.33;6.73;;;12.20;1.00;;;;;;6280247;28;20237;-56
2022/03/12 13:11:28;;;;;;;7.93;7.23;;;12.20;1.00;;;;;;6277211;28;20237;-57
2022/03/12 13:14:41;;;;;;;6.87;6.37;;;12.20;1.00;;;;;;6279993;28;20252;-56
2022/03/12 13:17:45;;;;;;;7.33;6.77;;;12.30;1.00;;;;;;6278870;28;20749;-55
2022/03/12 13:20:49;;;;;;;7.70;6.90;;;12.30;1.00;;;;;;6278422;28;20245;-55
2022/03/12 13:23:52;;;;;;;6.47;5.90;;;12.50;1.00;;;;;;6279889;28;20256;-56
2022/03/12 13:27:00;;;;;;;6.67;6.10;;;12.50;1.00;;;;;;6279848;28;20225;-57
2022/03/12 13:30:12;;;;;;;7.43;6.67;;;12.50;1.00;;;;;;6279556;28;20827;-56
2022/03/12 13:33:15;;;;;;;6.83;6.33;;;12.40;1.00;;;;;;6278899;28;20244;-56
2022/03/12 13:36:20;;;;;;;6.50;5.93;;;12.40;1.00;;;;;;6270964;28;20308;-56
2022/03/12 13:39:24;;;;;;;6.47;6.00;;;12.50;1.00;;;;;;6278737;28;20372;-57
2022/03/12 13:42:28;;;;;;;12.03;7.47;;;12.50;1.00;;;;;;6271199;28;20234;-56
2022/03/12 13:45:33;;;;;;;6.03;5.63;;;12.60;1.00;;;;;;6281537;28;20246;-57
2022/03/12 13:48:36;;;;;;;6.87;6.27;;;12.60;1.00;;;;;;6278594;28;20304;-55
2022/03/12 13:51:44;;;;;;;6.60;5.90;;;12.60;1.00;;;;;;6280568;28;20767;-56
2022/03/12 13:54:47;;;;;;;6.40;5.90;;;12.70;1.00;;;;;;6307127;28;20370;-55
2022/03/12 13:57:58;;;;;;;6.40;5.93;;;12.60;1.00;;;;;;6305193;28;20435;-56
2022/03/12 14:01:01;;;;;;;6.00;5.53;;;12.60;1.00;;;;;;6287068;28;20738;-57
2022/03/12 14:04:05;;;;;;;5.90;5.43;;;12.60;1.00;;;;;;6281027;28;20324;-57
2022/03/12 14:07:15;;;;;;;6.53;5.90;;;12.60;1.00;;;;;;6269710;28;20240;-58
2022/03/12 14:10:18;;;;;;;7.07;6.47;;;12.70;1.00;;;;;;6281071;28;20699;-57
2022/03/12 14:13:23;;;;;;;6.93;6.33;;;12.70;1.00;;;;;;6273832;28;20299;-56
2022/03/12 14:16:27;;;;;;;7.20;6.50;;;12.70;1.00;;;;;;6270211;28;20504;-56
2022/03/12 14:19:32;;;;;;;7.77;6.77;;;12.80;1.00;;;;;;6282663;28;20644;-55
2022/03/12 14:22:41;;;;;;;7.30;6.70;;;12.80;1.00;;;;;;6276728;28;20293;-57
2022/03/12 14:25:44;;;;;;;6.30;5.83;;;12.80;1.00;;;;;;6265448;28;20238;-56
2022/03/12 14:28:48;;;;;;;6.53;6.13;;;12.70;1.00;;;;;;6273337;28;20391;-55
2022/03/12 14:31:52;;;;;;;5.13;4.93;;;12.80;1.00;;;;;;6263201;28;20738;-56
2022/03/12 14:34:56;;;;;;;5.50;5.10;;;12.70;1.00;;;;;;6268445;28;20248;-57
2022/03/12 14:38:00;;;;;;;5.43;4.93;;;12.60;1.00;;;;;;6270437;28;20308;-57
2022/03/12 14:41:03;;;;;;;6.20;5.27;;;12.60;1.00;;;;;;6266584;28;20734;-58
2022/03/12 14:44:10;;;;;;;8.13;5.80;;;12.70;1.00;;;;;;6276153;28;20272;-58
2022/03/12 14:47:14;;;;;;;8.03;5.47;;;12.80;1.00;;;;;;6284791;28;20556;-56
2022/03/12 14:50:19;;;;;;;7.67;6.17;;;12.80;1.00;;;;;;6290269;28;20267;-57
2022/03/12 14:53:22;;;;;;;7.27;6.57;;;12.70;1.00;;;;;;6284500;28;20477;-56
2022/03/12 14:56:25;;;;;;;6.73;6.23;;;12.70;1.00;;;;;;6278924;28;20317;-56
2022/03/12 14:59:31;;;;;;;8.70;6.13;;;12.70;1.00;;;;;;6281410;28;20234;-56
2022/03/12 15:02:39;;;;;;;8.57;6.60;;;12.50;1.00;;;;;;6271602;28;20234;-56
2022/03/12 15:05:42;;;;;;;6.27;5.77;;;12.50;1.00;;;;;;6277326;28;20234;-56
2022/03/12 15:08:50;;;;;;;6.57;5.97;;;12.50;1.00;;;;;;6275431;28;20238;-57
2022/03/12 15:12:13;;;;;;;7.13;6.57;;;12.50;1.00;;;;;;6285651;28;20390;-57
2022/03/12 15:15:20;;;;;;;10.53;7.40;;;12.40;1.00;;;;;;6270575;28;20237;-56
2022/03/12 15:18:30;;;;;;;8.47;7.13;;;12.20;1.00;;;;;;6279176;28;20240;-57
2022/03/12 15:21:34;;;;;;;9.00;7.73;;;12.10;1.00;;;;;;6274110;28;20238;-55
2022/03/12 15:24:37;;;;;;;8.07;7.47;;;12.00;1.00;;;;;;6278171;28;20229;-55
2022/03/12 15:27:40;;;;;;;7.53;6.93;;;11.90;1.00;;;;;;6280113;28;20333;-56
2022/03/12 15:30:47;;;;;;;8.90;7.77;;;11.80;1.00;;;;;;6284809;28;20712;-56
2022/03/12 15:33:51;;;;;;;8.20;7.50;;;11.70;1.00;;;;;;6283139;28;20886;-58
2022/03/12 15:36:58;;;;;;;8.27;7.43;;;11.50;1.00;;;;;;6283987;28;20767;-57
2022/03/12 15:40:05;;;;;;;9.80;7.97;;;11.40;1.00;;;;;;6301118;28;20309;-55
2022/03/12 15:43:08;;;;;;;8.67;7.87;;;11.30;1.00;;;;;;6276896;28;20238;-55
2022/03/12 15:46:13;;;;;;;9.73;8.50;;;11.20;1.00;;;;;;6278656;28;20387;-56
2022/03/12 15:49:16;;;;;;;10.63;8.43;;;11.10;1.00;;;;;;6287569;28;20373;-57
2022/03/12 15:52:19;;;;;;;10.00;9.00;;;11.00;1.00;;;;;;6285464;28;20225;-56
2022/03/12 15:55:22;;;;;;;10.13;9.13;;;10.90;1.00;;;;;;6279585;28;20252;-55
2022/03/12 15:58:25;;;;;;;10.57;9.40;;;10.80;1.00;;;;;;6280263;28;20858;-59
2022/03/12 16:01:29;;;;;;;11.03;8.93;;;10.70;1.00;;;;;;6282595;28;20279;-56
2022/03/12 16:04:32;;;;;;;14.90;8.20;;;10.70;1.00;;;;;;6283198;28;20233;-58
2022/03/12 16:07:37;;;;;;;15.47;9.00;;;10.60;1.00;;;;;;6283611;28;20320;-56